Time;durP1;ratioP1;P1;durP2;ratioP2;P2;SDS_P1;SDS_P2;PMS_P1;PMS_P2;Temp;Humidity;BMP_temperature;BMP_pressure;BME280_temperature;BME280_humidity;BME280_pressure;Samples;Min_cycle;Max_cycle;Signal;HPM_P1;HPM_P2
2022/04/12 00:03:11;;;;;;;116.08;66.92;;;;;;;3.31;73.59;100559.59;2835157;83;21048;-80
2022/04/12 00:07:14;;;;;;;202.65;119.00;;;;;;;3.35;73.35;100565.95;2829252;83;21028;-80
2022/04/12 00:11:15;;;;;;;160.48;81.42;;;;;;;3.29;73.10;100555.26;2862384;81;21512;-80
2022/04/12 00:15:16;;;;;;;107.95;50.52;;;;;;;3.22;73.17;100560.42;2840056;81;21056;-80
2022/04/12 00:19:17;;;;;;;63.48;36.85;;;;;;;3.00;74.78;100557.93;2760170;83;21076;-80
2022/04/12 00:23:19;;;;;;;89.13;45.25;;;;;;;2.82;75.42;100555.69;2833811;82;21044;-79
2022/04/12 00:27:20;;;;;;;106.90;52.08;;;;;;;2.79;74.95;100557.14;2780600;83;21095;-79
2022/04/12 00:31:22;;;;;;;104.72;59.67;;;;;;;2.85;74.77;100563.42;2820675;83;21035;-80
2022/04/12 00:35:24;;;;;;;198.68;96.05;;;;;;;3.02;75.33;100560.50;2855149;81;21067;-80
2022/04/12 00:39:26;;;;;;;116.97;56.20;;;;;;;3.11;75.25;100561.38;2857997;83;20996;-80
2022/04/12 00:43:31;;;;;;;68.97;41.63;;;;;;;3.06;74.97;100562.06;2774389;83;21099;-80
2022/04/12 00:47:33;;;;;;;78.65;42.33;;;;;;;2.77;76.04;100562.45;2854755;81;21008;-80
2022/04/12 00:51:34;;;;;;;59.73;33.95;;;;;;;2.60;76.84;100567.16;2824361;83;20996;-80
2022/04/12 00:55:36;;;;;;;49.93;30.95;;;;;;;2.61;76.87;100560.11;2847343;83;20992;-80
2022/04/12 00:59:37;;;;;;;39.50;26.80;;;;;;;2.58;76.24;100557.19;2839310;81;21083;-80
2022/04/12 01:03:38;;;;;;;42.35;27.27;;;;;;;2.52;76.78;100566.18;2781010;83;21030;-80
2022/04/12 01:07:40;;;;;;;48.48;26.62;;;;;;;2.46;76.41;100566.91;2841031;82;21065;-80
2022/04/12 01:11:44;;;;;;;40.03;24.47;;;;;;;2.42;76.76;100563.10;2834094;81;21020;-79
2022/04/12 01:15:45;;;;;;;40.65;23.25;;;;;;;2.42;76.76;100564.41;2779452;83;21667;-80
2022/04/12 01:19:46;;;;;;;45.48;28.85;;;;;;;2.25;78.11;100565.59;2774235;83;21048;-80
2022/04/12 01:24:04;;;;;;;39.85;26.60;;;;;;;2.19;78.59;100565.87;2779350;83;21036;-80
2022/04/12 01:28:08;;;;;;;71.97;41.40;;;;;;;2.10;79.12;100569.73;2775035;83;21445;-79
2022/04/12 01:32:10;;;;;;;134.22;79.87;;;;;;;2.14;78.81;100568.20;2779702;83;21001;-80
2022/04/12 01:36:11;;;;;;;62.20;37.45;;;;;;;2.24;78.63;100573.08;2781850;83;21048;-80
2022/04/12 01:40:13;;;;;;;49.58;28.50;;;;;;;2.30;77.41;100575.44;2774687;84;21527;-79
2022/04/12 01:44:14;;;;;;;54.63;31.70;;;;;;;2.24;77.51;100572.60;2780403;83;21016;-80
2022/04/12 01:48:15;;;;;;;60.35;30.68;;;;;;;2.23;76.97;100576.63;2793780;83;21032;-80
2022/04/12 01:52:16;;;;;;;65.03;37.17;;;;;;;2.26;77.04;100575.17;2808467;83;21674;-80
2022/04/12 01:56:18;;;;;;;98.17;56.05;;;;;;;2.33;77.71;100577.09;2811477;83;21575;-79
2022/04/12 02:00:19;;;;;;;82.30;46.30;;;;;;;2.38;77.55;100574.66;2800498;83;21524;-80
2022/04/12 02:04:20;;;;;;;70.50;36.28;;;;;;;2.43;77.50;100571.38;2770406;84;21047;-80
2022/04/12 02:08:22;;;;;;;58.20;34.10;;;;;;;2.43;76.73;100564.80;2740301;86;21060;-80
2022/04/12 02:12:23;;;;;;;46.08;30.92;;;;;;;2.41;76.64;100571.90;2789944;85;21094;-80
2022/04/12 02:16:24;;;;;;;54.33;34.25;;;;;;;2.45;76.08;100568.66;2791692;84;21400;-80
2022/04/12 02:20:26;;;;;;;49.53;28.70;;;;;;;2.47;76.31;100565.98;2781442;82;21009;-79
2022/04/12 02:24:27;;;;;;;43.55;27.52;;;;;;;2.50;75.76;100564.53;2773087;83;21551;-80
2022/04/12 02:28:28;;;;;;;60.23;36.25;;;;;;;2.52;75.26;100558.75;2824936;83;21058;-80
2022/04/12 02:32:29;;;;;;;47.62;30.08;;;;;;;2.51;75.51;100557.05;2779392;82;21037;-80
2022/04/12 02:36:30;;;;;;;44.13;27.65;;;;;;;2.44;76.04;100561.70;2790554;83;21056;-80
2022/04/12 02:40:32;;;;;;;49.08;26.85;;;;;;;2.32;76.11;100555.69;2736485;84;21052;-80
2022/04/12 02:44:34;;;;;;;50.28;28.70;;;;;;;2.28;75.57;100557.14;2770605;83;21067;-79
2022/04/12 02:48:35;;;;;;;50.33;31.12;;;;;;;2.31;75.13;100561.38;2874433;81;21039;-79
2022/04/12 02:52:36;;;;;;;51.10;30.77;;;;;;;2.33;74.86;100561.33;2869535;80;21090;-79
2022/04/12 02:56:37;;;;;;;49.05;28.90;;;;;;;2.36;74.64;100566.00;2874666;81;21039;-80
2022/04/12 03:00:38;;;;;;;46.40;28.92;;;;;;;2.37;74.11;100562.90;2882870;80;21023;-79
2022/04/12 03:04:40;;;;;;;51.48;29.50;;;;;;;2.40;74.49;100564.95;2867172;80;21166;-79
2022/04/12 03:08:41;;;;;;;45.70;28.73;;;;;;;2.45;74.64;100569.97;2873148;82;21044;-80
2022/04/12 03:12:43;;;;;;;49.60;30.32;;;;;;;2.47;74.83;100569.92;2876812;81;21595;-79
2022/04/12 03:16:44;;;;;;;52.03;32.70;;;;;;;2.43;74.67;100575.31;2863982;81;21043;-79
2022/04/12 03:20:45;;;;;;;56.50;31.10;;;;;;;2.41;74.73;100569.72;2857600;82;21014;-79
2022/04/12 03:24:46;;;;;;;49.40;27.55;;;;;;;2.43;74.06;100570.05;2867528;80;21351;-79
2022/04/12 03:28:47;;;;;;;46.40;24.77;;;;;;;2.36;73.84;100572.56;2879923;80;21045;-80
2022/04/12 03:32:49;;;;;;;49.10;28.67;;;;;;;2.24;73.51;100572.60;2875396;81;21071;-79
2022/04/12 03:36:50;;;;;;;49.35;28.07;;;;;;;2.16;73.54;100580.41;2884756;80;21140;-79
2022/04/12 03:40:52;;;;;;;42.17;24.35;;;;;;;2.09;73.16;100581.14;2794472;82;22043;-79
2022/04/12 03:44:53;;;;;;;45.05;28.27;;;;;;;2.08;73.13;100578.97;2821216;82;21548;-79
2022/04/12 03:48:54;;;;;;;50.48;28.83;;;;;;;2.03;73.57;100575.69;2778361;83;20993;-79
2022/04/12 03:52:55;;;;;;;46.33;27.60;;;;;;;2.04;73.73;100577.84;2820632;83;21020;-79
2022/04/12 03:56:57;;;;;;;40.15;24.75;;;;;;;2.11;74.31;100581.94;2783255;83;21064;-79
2022/04/12 04:00:58;;;;;;;45.55;23.55;;;;;;;2.14;73.86;100591.82;2763629;83;21099;-80
2022/04/12 04:04:59;;;;;;;44.38;28.10;;;;;;;2.13;73.43;100587.49;2821279;83;21071;-79
2022/04/12 04:09:00;;;;;;;53.35;29.87;;;;;;;2.11;74.24;100584.08;2793452;83;21052;-79
2022/04/12 04:13:01;;;;;;;50.55;26.80;;;;;;;2.10;74.36;100585.00;2761814;84;21463;-80
2022/04/12 04:17:03;;;;;;;51.68;29.57;;;;;;;2.09;74.39;100592.48;2737610;84;21100;-79
2022/04/12 04:21:04;;;;;;;43.10;27.25;;;;;;;2.12;74.49;100591.52;2768647;84;21034;-80
2022/04/12 04:25:09;;;;;;;43.95;27.35;;;;;;;2.12;74.14;100594.97;2740343;83;21084;-79
2022/04/12 04:29:10;;;;;;;42.38;25.72;;;;;;;2.14;74.50;100594.45;2784046;83;21055;-80
2022/04/12 04:33:11;;;;;;;59.27;34.43;;;;;;;2.20;74.10;100593.82;2741777;85;21032;-80
2022/04/12 04:37:12;;;;;;;65.45;35.73;;;;;;;2.65;76.14;100602.39;2795907;83;21349;-79
2022/04/12 04:41:13;;;;;;;59.03;34.92;;;;;;;3.43;77.36;100607.20;2783996;85;21052;-80
2022/04/12 04:45:18;;;;;;;71.15;42.13;;;;;;;4.33;78.18;100603.35;2759216;83;21094;-80
2022/04/12 04:49:19;;;;;;;56.63;34.92;;;;;;;5.21;75.68;100600.53;2786652;83;21036;-80
2022/04/12 04:53:20;;;;;;;59.75;35.73;;;;;;;5.97;75.40;100603.39;2803452;81;21027;-80
2022/04/12 04:57:21;;;;;;;54.30;33.63;;;;;;;6.60;73.68;100608.12;2855995;83;21070;-80
2022/04/12 05:01:22;;;;;;;60.43;40.88;;;;;;;7.18;73.00;100611.27;2793335;83;20998;-80
2022/04/12 05:05:24;;;;;;;69.20;39.50;;;;;;;7.82;70.40;100614.23;2843593;83;20987;-80
2022/04/12 05:09:25;;;;;;;43.33;27.77;;;;;;;8.53;68.61;100615.83;2829672;81;21508;-80
2022/04/12 05:13:26;;;;;;;41.92;26.75;;;;;;;8.74;63.83;100621.45;2810008;82;21383;-80
2022/04/12 05:17:29;;;;;;;35.38;23.38;;;;;;;8.76;63.45;100627.52;2838566;82;21042;-80
2022/04/12 05:21:30;;;;;;;39.53;25.35;;;;;;;8.81;62.01;100638.66;2791889;83;21012;-80
2022/04/12 05:25:31;;;;;;;50.58;30.92;;;;;;;8.97;61.88;100641.09;2819414;83;21030;-80
2022/04/12 05:29:32;;;;;;;53.68;37.93;;;;;;;9.28;63.55;100642.92;2814915;82;21056;-80
2022/04/12 05:33:33;;;;;;;49.88;30.62;;;;;;;10.27;60.67;100642.05;2808696;82;21535;-80
2022/04/12 05:37:52;;;;;;;49.90;32.90;;;;;;;10.73;56.97;100646.19;2815616;83;21024;-80
2022/04/12 05:41:53;;;;;;;53.87;36.60;;;;;;;10.96;58.67;100646.58;2780071;82;21611;-80
2022/04/12 05:45:54;;;;;;;60.08;46.23;;;;;;;11.46;55.90;100656.50;2779517;83;21674;-80
2022/04/12 05:49:55;;;;;;;59.00;35.00;;;;;;;12.02;55.00;100654.73;2811230;84;21055;-80
2022/04/12 05:53:56;;;;;;;57.55;41.13;;;;;;;12.34;54.24;100664.56;2806446;84;21015;-80
2022/04/12 05:57:59;;;;;;;65.92;39.85;;;;;;;12.76;53.25;100663.24;2822270;83;21689;-80
2022/04/12 06:02:00;;;;;;;61.68;41.00;;;;;;;12.64;50.66;100670.95;2787984;84;21058;-80
2022/04/12 06:06:02;;;;;;;55.20;37.63;;;;;;;12.68;52.27;100664.39;2836818;83;21007;-80
2022/04/12 06:10:04;;;;;;;54.53;35.73;;;;;;;12.97;51.97;100672.58;2803551;83;21065;-80
2022/04/12 06:14:05;;;;;;;60.43;43.10;;;;;;;13.35;51.69;100680.05;2806273;83;21519;-80
2022/04/12 06:18:07;;;;;;;39.30;29.07;;;;;;;13.59;51.01;100680.25;2859854;82;21019;-80
2022/04/12 06:22:09;;;;;;;41.25;30.62;;;;;;;13.64;51.03;100676.67;2825546;82;21039;-80
2022/04/12 06:26:10;;;;;;;40.83;30.45;;;;;;;13.82;50.10;100680.86;2783128;83;21582;-80
2022/04/12 06:30:14;;;;;;;43.08;28.67;;;;;;;13.68;49.36;100674.08;2817790;83;21038;-80
2022/04/12 06:34:15;;;;;;;38.85;27.82;;;;;;;13.50;49.32;100674.72;2840024;83;21066;-80
2022/04/12 06:38:18;;;;;;;43.87;30.60;;;;;;;13.47;50.08;100679.01;2781394;83;21047;-80
2022/04/12 06:42:20;;;;;;;38.80;28.30;;;;;;;13.44;50.89;100681.95;2815531;84;21082;-80
2022/04/12 06:46:21;;;;;;;54.65;36.17;;;;;;;13.27;50.64;100685.58;2807703;83;21102;-80
2022/04/12 06:50:24;;;;;;;53.95;37.58;;;;;;;13.12;51.48;100691.77;2763005;84;21045;-80
2022/04/12 06:54:25;;;;;;;56.70;34.15;;;;;;;13.03;52.76;100686.38;2786673;84;21035;-80
2022/04/12 06:58:26;;;;;;;52.85;32.20;;;;;;;13.06;53.19;100694.12;2762114;84;21060;-80
2022/04/12 07:02:27;;;;;;;48.50;32.75;;;;;;;13.01;53.57;100695.84;2753863;85;21269;-80
2022/04/12 07:06:28;;;;;;;38.50;29.02;;;;;;;12.70;54.46;100699.80;2789001;84;20976;-80
2022/04/12 07:10:29;;;;;;;58.28;31.07;;;;;;;12.51;56.67;100702.69;2798755;84;22222;-80
2022/04/12 07:14:31;;;;;;;36.45;23.57;;;;;;;12.39;57.07;100707.22;2770600;85;21003;-80
2022/04/12 07:18:32;;;;;;;30.00;19.17;;;;;;;12.51;57.04;100707.16;2743175;86;21394;-80
2022/04/12 07:22:34;;;;;;;19.40;13.88;;;;;;;12.71;55.44;100709.00;2779655;84;21484;-80
2022/04/12 07:26:38;;;;;;;20.25;12.65;;;;;;;12.34;56.78;100709.41;2752324;86;21557;-80
2022/04/12 07:30:39;;;;;;;15.25;11.90;;;;;;;12.46;56.42;100705.37;2780655;83;21048;-80
2022/04/12 07:34:41;;;;;;;19.65;12.50;;;;;;;12.56;55.21;100704.47;2776442;84;21031;-80
2022/04/12 07:38:42;;;;;;;12.20;10.95;;;;;;;12.32;56.56;100706.52;2860662;82;21011;-80
2022/04/12 07:42:43;;;;;;;24.07;12.90;;;;;;;12.32;57.95;100701.19;2860445;81;21166;-80
2022/04/12 07:46:45;;;;;;;21.48;13.20;;;;;;;12.65;57.93;100704.66;2856881;82;20984;-80
2022/04/12 07:50:46;;;;;;;24.52;15.45;;;;;;;12.76;56.95;100705.09;2857384;81;21039;-80
2022/04/12 07:54:47;;;;;;;25.45;16.20;;;;;;;12.93;55.66;100714.36;2833107;81;21021;-80
2022/04/12 07:58:49;;;;;;;21.73;13.98;;;;;;;12.97;54.93;100705.95;2834619;83;20996;-79
2022/04/12 08:02:50;;;;;;;20.27;15.28;;;;;;;12.72;56.19;100707.19;2841673;83;21048;-80
2022/04/12 08:06:51;;;;;;;24.00;15.90;;;;;;;12.99;56.04;100708.48;2853184;81;20993;-80
2022/04/12 08:10:52;;;;;;;23.38;15.80;;;;;;;13.15;54.94;100709.33;2789508;83;21055;-80
2022/04/12 08:14:53;;;;;;;18.17;11.30;;;;;;;13.23;52.72;100714.02;2835073;82;21031;-80
2022/04/12 08:18:55;;;;;;;17.32;11.25;;;;;;;13.26;52.44;100711.08;2803905;83;21024;-80
2022/04/12 08:22:56;;;;;;;12.47;9.85;;;;;;;13.42;51.12;100709.27;2789829;83;21057;-80
2022/04/12 08:26:57;;;;;;;13.72;8.75;;;;;;;13.48;52.09;100703.41;2860123;83;20996;-80
2022/04/12 08:30:58;;;;;;;12.70;9.28;;;;;;;13.63;52.59;100709.73;2850442;82;21020;-80
2022/04/12 08:35:00;;;;;;;11.95;8.35;;;;;;;13.81;50.68;100706.77;2828015;81;21038;-80
2022/04/12 08:39:01;;;;;;;10.40;6.37;;;;;;;13.99;49.87;100704.27;2844015;83;21031;-80
2022/04/12 08:43:02;;;;;;;11.12;8.63;;;;;;;14.06;50.80;100703.22;2859122;81;21041;-80
2022/04/12 08:47:07;;;;;;;16.45;10.25;;;;;;;14.31;50.17;100702.32;2854549;81;21032;-80
2022/04/12 08:51:08;;;;;;;14.13;9.78;;;;;;;14.40;47.94;100696.62;2863826;82;21082;-80
2022/04/12 08:55:09;;;;;;;10.45;7.47;;;;;;;14.55;48.76;100698.41;2893705;80;20996;-80
2022/04/12 08:59:11;;;;;;;15.80;9.53;;;;;;;14.56;46.54;100699.58;2878185;82;21032;-80
2022/04/12 09:03:15;;;;;;;9.73;7.78;;;;;;;14.61;46.45;100701.84;2869247;82;21034;-80
2022/04/12 09:07:17;;;;;;;8.50;5.08;;;;;;;14.54;47.00;100704.71;2872361;82;21602;-80
2022/04/12 09:11:18;;;;;;;10.50;6.97;;;;;;;14.48;46.06;100694.58;2858567;82;21056;-80
2022/04/12 09:15:23;;;;;;;17.52;9.95;;;;;;;14.46;47.10;100704.59;2861449;82;21555;-80
2022/04/12 09:19:46;;;;;;;8.98;5.28;;;;;;;14.45;45.36;100702.42;2892860;81;21031;-80
2022/04/12 09:23:51;;;;;;;17.55;6.80;;;;;;;14.49;45.24;100686.42;2881247;81;21007;-80
2022/04/12 09:27:55;;;;;;;10.70;6.03;;;;;;;14.52;46.95;100690.63;2823453;84;21143;-80
2022/04/12 09:32:00;;;;;;;17.90;11.28;;;;;;;14.60;47.75;100689.45;2775959;83;21094;-80
2022/04/12 09:36:01;;;;;;;9.65;7.03;;;;;;;14.89;45.08;100690.42;2777607;84;21007;-80
2022/04/12 09:40:11;;;;;;;20.82;10.63;;;;;;;14.74;46.00;100693.54;2849251;82;21355;-80
2022/04/12 09:44:18;;;;;;;14.80;8.75;;;;;;;14.99;45.26;100685.88;2875601;82;21053;-80
2022/04/12 09:48:25;;;;;;;13.88;8.95;;;;;;;15.13;45.09;100677.37;2872129;82;21056;-80
2022/04/12 09:52:27;;;;;;;22.10;13.62;;;;;;;15.17;44.07;100679.76;2858205;81;21575;-80
2022/04/12 09:56:30;;;;;;;22.70;12.55;;;;;;;15.17;44.86;100678.42;2799151;83;21036;-80
2022/04/12 10:00:33;;;;;;;9.88;7.08;;;;;;;15.39;44.66;100675.88;2809280;83;21039;-80
2022/04/12 10:04:36;;;;;;;8.65;6.28;;;;;;;15.24;44.85;100672.33;2802088;83;21027;-80
2022/04/12 10:08:39;;;;;;;28.80;8.58;;;;;;;15.23;45.40;100671.13;2846010;82;20991;-80
2022/04/12 10:12:40;;;;;;;8.88;6.35;;;;;;;15.37;45.99;100677.35;2874571;81;21027;-80
2022/04/12 10:16:41;;;;;;;8.55;6.20;;;;;;;15.45;44.15;100669.91;2877827;82;20984;-80
2022/04/12 10:20:43;;;;;;;11.70;6.90;;;;;;;15.63;43.86;100671.32;2873799;81;21035;-80
2022/04/12 10:24:45;;;;;;;8.15;7.35;;;;;;;15.76;44.46;100662.91;2872224;81;21034;-80
2022/04/12 10:28:52;;;;;;;8.40;7.00;;;;;;;15.83;42.66;100657.28;2844685;81;20975;-80
2022/04/12 10:33:05;;;;;;;9.58;6.40;;;;;;;15.83;42.22;100657.80;2869763;81;21020;-80
2022/04/12 10:37:10;;;;;;;8.45;6.70;;;;;;;15.85;43.34;100650.44;2878348;81;21024;-80
2022/04/12 10:41:23;;;;;;;11.70;7.70;;;;;;;15.91;41.16;100651.67;2846849;82;21023;-80
2022/04/12 10:45:33;;;;;;;13.78;6.35;;;;;;;15.95;42.47;100632.45;2858827;81;20980;-80
2022/04/12 10:49:38;;;;;;;19.20;10.10;;;;;;;15.84;42.20;100633.48;2852162;81;21082;-80
2022/04/12 10:53:46;;;;;;;8.90;6.37;;;;;;;15.90;42.06;100625.84;2802102;83;21000;-80
2022/04/12 10:57:47;;;;;;;9.90;7.97;;;;;;;16.06;42.41;100631.89;2718746;85;21566;-80
2022/04/12 11:01:48;;;;;;;9.43;6.67;;;;;;;16.16;43.04;100618.39;2722493;85;21401;-80
2022/04/12 11:05:57;;;;;;;9.83;6.62;;;;;;;16.08;44.64;100609.25;2680055;87;21627;-80
2022/04/12 11:10:16;;;;;;;9.90;6.55;;;;;;;16.16;42.24;100607.66;2816767;83;21067;-80
2022/04/12 11:14:27;;;;;;;9.38;6.65;;;;;;;16.26;40.90;100603.03;2743060;85;21035;-80
2022/04/12 11:18:49;;;;;;;12.95;7.17;;;;;;;16.41;40.17;100602.82;2725410;86;21019;-80
2022/04/12 11:22:57;;;;;;;12.88;6.62;;;;;;;16.38;41.38;100599.59;2715896;85;21106;-80
2022/04/12 11:27:13;;;;;;;8.00;5.53;;;;;;;16.53;41.91;100601.23;2754037;84;21630;-80
2022/04/12 11:31:14;;;;;;;10.58;5.97;;;;;;;16.45;41.44;100603.84;2769588;84;21027;-80
2022/04/12 11:35:19;;;;;;;10.65;5.75;;;;;;;16.56;41.73;100604.43;2764567;84;21043;-80
2022/04/12 11:39:27;;;;;;;8.55;6.80;;;;;;;16.61;40.35;100602.63;2714837;86;20995;-80
2022/04/12 11:43:28;;;;;;;9.38;6.58;;;;;;;16.68;40.83;100592.92;2744735;85;21043;-80
2022/04/12 11:47:33;;;;;;;35.80;13.98;;;;;;;16.48;41.24;100598.16;2796413;84;21070;-80
2022/04/12 11:51:43;;;;;;;10.90;8.13;;;;;;;16.42;42.71;100591.59;2764680;84;21013;-80
2022/04/12 11:55:47;;;;;;;10.95;7.83;;;;;;;16.48;41.79;100594.13;2793984;84;21082;-80
2022/04/12 11:59:56;;;;;;;10.82;6.90;;;;;;;16.64;41.24;100582.16;2776540;84;21571;-80
2022/04/12 12:04:06;;;;;;;14.75;7.70;;;;;;;16.74;42.46;100590.63;2792986;84;21134;-80
2022/04/12 12:08:07;;;;;;;18.12;6.83;;;;;;;16.87;42.35;100574.06;2789777;85;21060;-80
2022/04/12 12:12:09;;;;;;;12.20;9.15;;;;;;;16.66;42.71;100584.70;2810084;83;21075;-80
2022/04/12 12:16:15;;;;;;;10.58;7.25;;;;;;;16.69;42.26;100589.23;2847187;81;21058;-80
2022/04/12 12:20:19;;;;;;;11.68;7.35;;;;;;;16.78;41.50;100585.27;2866037;82;20968;-80
2022/04/12 12:24:20;;;;;;;9.45;7.37;;;;;;;16.83;43.45;100586.48;2843652;81;21052;-80
2022/04/12 12:28:27;;;;;;;12.33;8.25;;;;;;;16.82;41.49;100580.77;2873015;81;21056;-81
2022/04/12 12:32:35;;;;;;;12.23;9.28;;;;;;;16.86;41.99;100581.27;2858505;81;21012;-80
2022/04/12 12:36:37;;;;;;;9.93;7.03;;;;;;;16.89;42.81;100582.81;2835212;81;21058;-80
2022/04/12 12:40:39;;;;;;;7.97;7.17;;;;;;;17.13;41.39;100580.77;2869970;82;21055;-80
2022/04/12 12:44:40;;;;;;;10.35;8.35;;;;;;;17.23;40.68;100576.09;2863976;82;20996;-80
2022/04/12 12:48:42;;;;;;;8.45;7.65;;;;;;;17.28;42.12;100575.61;2834431;81;21112;-80
2022/04/12 12:52:43;;;;;;;8.43;7.08;;;;;;;17.25;40.65;100571.91;2875510;81;21070;-81
2022/04/12 12:56:47;;;;;;;9.63;7.03;;;;;;;17.28;40.80;100564.34;2856581;82;21050;-80
2022/04/12 13:00:48;;;;;;;13.83;9.10;;;;;;;17.31;41.81;100570.42;2866108;81;20984;-80
2022/04/12 13:04:53;;;;;;;12.82;8.63;;;;;;;17.34;41.79;100564.20;2869621;81;21012;-80
2022/04/12 13:09:04;;;;;;;13.83;8.43;;;;;;;17.40;40.18;100560.88;2851472;82;21590;-82
2022/04/12 13:13:07;;;;;;;14.00;8.53;;;;;;;17.46;40.72;100549.94;2875065;81;21567;-82
2022/04/12 13:17:08;;;;;;;10.13;7.90;;;;;;;17.48;42.63;100551.13;2866456;81;21610;-81
2022/04/12 13:21:11;;;;;;;13.38;8.48;;;;;;;17.37;41.27;100554.45;2871508;81;29328;-82
2022/04/12 13:25:20;;;;;;;11.65;8.28;;;;;;;17.37;40.31;100545.56;2872986;81;21000;-88
2022/04/12 13:29:22;;;;;;;11.83;8.00;;;;;;;17.31;40.69;100551.09;2875943;81;21501;-81
2022/04/12 13:33:23;;;;;;;9.48;6.78;;;;;;;17.31;40.63;100550.27;2879033;81;21476;-81
2022/04/12 13:37:24;;;;;;;11.05;7.55;;;;;;;17.36;40.36;100539.84;2873682;81;21648;-83
2022/04/12 13:41:25;;;;;;;9.23;7.72;;;;;;;17.37;39.95;100531.59;2883120;81;21018;-80
2022/04/12 13:45:26;;;;;;;13.62;8.18;;;;;;;17.35;40.20;100519.34;2883123;81;21008;-81
2022/04/12 13:49:29;;;;;;;11.18;7.78;;;;;;;17.40;41.75;100521.03;2879030;81;21110;-81
2022/04/12 13:53:31;;;;;;;13.88;9.50;;;;;;;17.47;42.41;100523.91;2859957;82;21043;-81
2022/04/12 13:57:33;;;;;;;11.65;8.60;;;;;;;17.37;40.59;100521.37;2862335;81;21031;-81
2022/04/12 14:01:34;;;;;;;13.60;9.65;;;;;;;17.36;41.39;100522.38;2868317;81;21087;-80
2022/04/12 14:05:35;;;;;;;10.78;7.53;;;;;;;17.31;40.79;100523.38;2852288;81;21047;-81
2022/04/12 14:09:37;;;;;;;15.45;7.75;;;;;;;17.33;41.83;100510.61;2871663;80;21050;-81
2022/04/12 14:13:41;;;;;;;11.35;8.25;;;;;;;17.36;40.35;100507.59;2872689;81;21023;-80
2022/04/12 14:17:42;;;;;;;15.90;10.45;;;;;;;17.27;40.96;100501.34;2808129;84;21056;-80
2022/04/12 14:21:43;;;;;;;12.68;9.08;;;;;;;17.31;41.17;100499.18;2812914;83;21622;-82
2022/04/12 14:25:46;;;;;;;14.85;8.55;;;;;;;17.15;42.85;100500.81;2808239;84;21044;-82
2022/04/12 14:29:50;;;;;;;11.43;7.40;;;;;;;17.08;41.66;100490.36;2813161;83;21110;-81
2022/04/12 14:33:51;;;;;;;13.05;10.03;;;;;;;17.04;41.58;100495.73;2790170;84;21070;-83
2022/04/12 14:37:52;;;;;;;10.25;8.08;;;;;;;16.98;40.26;100499.42;2795945;83;21055;-81
2022/04/12 14:41:53;;;;;;;13.48;8.48;;;;;;;16.89;41.70;100500.34;2790187;84;21007;-86
2022/04/12 14:45:57;;;;;;;11.05;8.63;;;;;;;16.87;41.74;100506.91;2739230;84;21817;-87
2022/04/12 14:50:00;;;;;;;22.00;13.08;;;;;;;16.87;42.68;100503.70;2792926;83;21084;-82
2022/04/12 14:54:01;;;;;;;20.90;10.15;;;;;;;16.89;42.07;100496.31;2809944;84;21031;-83
2022/04/12 14:58:03;;;;;;;10.78;7.33;;;;;;;16.89;42.18;100493.63;2866403;81;21051;-81
2022/04/12 15:02:04;;;;;;;13.03;10.28;;;;;;;16.88;42.45;100494.63;2868042;82;21032;-81
2022/04/12 15:32:22;;;;;;;9.60;7.65;;;;;;;16.79;42.26;100497.78;2855247;80;21106;-87
2022/04/12 15:36:23;;;;;;;10.23;7.47;;;;;;;16.86;41.86;100502.02;2889037;81;21039;-89
2022/04/12 15:40:25;;;;;;;15.03;8.63;;;;;;;16.96;42.23;100497.37;2853047;79;21019;-87
2022/04/12 15:44:26;;;;;;;10.72;8.40;;;;;;;16.93;40.90;100499.53;2943099;79;21462;-87
2022/04/12 15:48:28;;;;;;;15.93;9.53;;;;;;;16.89;41.46;100505.72;2918951;78;21004;-89
2022/04/12 15:52:29;;;;;;;14.73;8.38;;;;;;;16.87;41.43;100505.56;2919995;78;21039;-89
2022/04/12 15:56:30;;;;;;;10.98;8.95;;;;;;;16.84;40.79;100503.54;2996612;76;21023;-81
2022/04/12 16:00:32;;;;;;;9.35;6.70;;;;;;;16.91;42.55;100507.77;3007990;77;20940;-83
2022/04/12 16:04:33;;;;;;;8.65;7.25;;;;;;;16.90;42.12;100508.78;2998953;76;20945;-84
2022/04/12 16:08:34;;;;;;;10.25;6.67;;;;;;;16.80;40.70;100502.19;2988377;76;21011;-83
2022/04/12 16:12:35;;;;;;;10.55;7.87;;;;;;;16.69;41.26;100500.60;2988681;78;20984;-85
2022/04/12 16:16:36;;;;;;;8.33;7.35;;;;;;;16.56;41.81;100509.62;2988315;77;21007;-84
2022/04/12 16:20:38;;;;;;;10.23;7.10;;;;;;;16.37;41.48;100507.50;2988435;77;20980;-83
2022/04/12 16:24:40;;;;;;;7.33;6.37;;;;;;;16.23;40.49;100512.95;2988601;78;20980;-83
2022/04/12 16:28:41;;;;;;;10.65;7.33;;;;;;;16.15;42.25;100510.71;2988307;78;21472;-84
2022/04/12 16:32:42;;;;;;;12.58;6.30;;;;;;;15.98;42.15;100511.92;2970269;77;22462;-84
2022/04/12 16:36:43;;;;;;;14.20;8.28;;;;;;;15.84;42.84;100512.78;2940102;78;20974;-89
2022/04/12 16:40:45;;;;;;;10.55;7.60;;;;;;;15.79;42.81;100519.60;2988125;77;21040;-84
2022/04/12 16:44:46;;;;;;;15.85;7.65;;;;;;;15.61;42.16;100520.44;3018506;77;20953;-84
2022/04/12 16:48:47;;;;;;;11.43;6.85;;;;;;;15.49;43.36;100523.86;2980316;77;21521;-84
2022/04/12 16:52:49;;;;;;;9.50;6.75;;;;;;;15.40;43.69;100526.13;2959931;77;21017;-84
2022/04/12 16:56:50;;;;;;;12.30;8.43;;;;;;;15.23;43.37;100528.63;2947248;78;21008;-84
2022/04/12 17:00:52;;;;;;;12.82;9.23;;;;;;;15.06;43.33;100526.27;2953663;78;21072;-90
2022/04/12 17:04:57;;;;;;;15.28;8.90;;;;;;;14.90;43.90;100530.08;2971645;77;21053;-84
2022/04/12 17:08:56;;;;;;;12.47;10.08;;;;;;;14.71;44.49;100528.66;2965723;77;21025;-84
2022/04/12 17:12:57;;;;;;;12.50;7.22;;;;;;;14.54;44.72;100532.06;2947234;77;21361;-84
2022/04/12 17:16:58;;;;;;;8.20;7.40;;;;;;;14.33;44.94;100534.95;2970861;78;21021;-84
2022/04/12 17:21:00;;;;;;;11.18;7.75;;;;;;;14.21;44.59;100529.75;2970178;78;21505;-84
2022/04/12 17:25:04;;;;;;;18.62;8.80;;;;;;;14.07;44.50;100527.03;2969852;78;21057;-84
2022/04/12 17:29:06;;;;;;;39.40;28.05;;;;;;;13.90;44.99;100525.08;2970542;78;21017;-83
2022/04/12 17:33:08;;;;;;;11.40;8.18;;;;;;;13.75;44.80;100525.50;2969937;78;21033;-83
2022/04/12 17:37:09;;;;;;;13.25;8.70;;;;;;;13.68;45.14;100537.75;2970320;78;21031;-84
2022/04/12 17:41:11;;;;;;;14.07;9.10;;;;;;;13.55;45.49;100536.18;2970163;78;21033;-84
2022/04/12 17:45:13;;;;;;;12.15;8.33;;;;;;;13.44;45.48;100532.31;2969459;78;21006;-84
2022/04/12 17:49:14;;;;;;;14.75;10.15;;;;;;;13.32;45.71;100532.05;2949330;78;21064;-84
2022/04/12 17:53:15;;;;;;;12.35;8.50;;;;;;;13.21;45.93;100531.19;2887811;80;20991;-84
2022/04/12 17:57:16;;;;;;;16.17;10.18;;;;;;;13.07;46.12;100530.23;2951833;79;21034;-84
2022/04/12 18:01:18;;;;;;;15.25;9.03;;;;;;;12.94;46.41;100535.82;2951310;79;21006;-85
2022/04/12 18:05:20;;;;;;;18.67;10.10;;;;;;;12.80;46.78;100535.20;2950425;79;21014;-85
2022/04/12 18:09:21;;;;;;;17.35;10.60;;;;;;;12.69;47.17;100532.13;2951297;79;21014;-84
2022/04/12 18:13:24;;;;;;;22.75;14.38;;;;;;;12.56;47.56;100533.69;2950333;79;21319;-84
2022/04/12 18:17:25;;;;;;;23.52;16.12;;;;;;;12.41;47.93;100538.53;2950040;79;21018;-84
2022/04/12 18:21:26;;;;;;;20.92;14.78;;;;;;;12.32;48.17;100539.30;2935460;79;21010;-84
2022/04/12 18:25:27;;;;;;;21.17;14.25;;;;;;;12.14;48.19;100541.22;2950028;78;21490;-84
2022/04/12 18:29:29;;;;;;;22.85;14.45;;;;;;;12.03;48.53;100546.64;2950334;79;21018;-84
2022/04/12 18:33:30;;;;;;;28.75;17.98;;;;;;;11.85;49.00;100551.64;2955781;78;21012;-89
2022/04/12 18:37:31;;;;;;;23.73;16.97;;;;;;;11.71;49.28;100556.78;2865926;81;21047;-84
2022/04/12 18:41:33;;;;;;;21.40;13.20;;;;;;;11.57;49.80;100566.75;2994396;77;21098;-84
2022/04/12 18:45:34;;;;;;;18.85;12.88;;;;;;;11.31;50.96;100570.69;2967728;77;21054;-84
2022/04/12 18:49:36;;;;;;;21.52;13.53;;;;;;;11.16;50.68;100572.28;2971288;77;21027;-84
2022/04/12 18:53:37;;;;;;;21.60;13.98;;;;;;;10.98;50.52;100577.27;2970072;77;20991;-84
2022/04/12 18:57:39;;;;;;;18.30;13.53;;;;;;;10.89;50.62;100569.52;2977933;77;20980;-83
2022/04/12 19:01:41;;;;;;;16.52;12.82;;;;;;;10.78;51.03;100573.49;2981846;77;20987;-84